Hauptseite
METAR-TAF:

METAR-TAF

Flughäfen :

Düsseldorf Airport

Düsseldorf, Deutschland

Breite: 51-18N, Länge: 006-46E, Höhe: 45 m

Beobachtung

Neuester Wetterbericht von vor 22 Minuten, um 05:50 UTC
Wind 8 kt aus Südost
Temperatur -2°C
Luftfeuchtigkeit 80%
Luftdruck 998 hPa
Sichtweite 10 km oder mehr
Aufgelockert bewölkt in der Höhe von 3600 ft

METAR: EDDL 230550Z 13008KT 9999 SCT036 M02/M05 Q0998 R05L/290195 R05R/290195 NOSIG

Zeit: 07:12 (06:12 UTC)

Prognose

Neuester Wetterbericht von vor 1 Stunde und 12 Minuten, um 05:00 UTC
Gültige Prognose vom 23 um 06 UTC bis 24 um 12 UTC
Wind 10 kt aus Südost
Sichtweite 10 km oder mehr
Geschlossene Wolkendecke in der Höhe von 2500 ft
Übergehend zu
vom 23 um 10 UTC bis 23 um 13 UTC
Wind 5 kt aus Ost/Nordost
Übergehend zu
vom 23 um 17 UTC bis 23 um 20 UTC
Wind 4 kt aus Nord

TAF: EDDL 230500Z 2306/2412 13010KT 9999 OVC025 BECMG 2310/2313 06005KT BECMG 2317/2320 36004KT

Wetterbeobachtungen und Prognosen von mehr als 4000 Flughäfen (METAR und TAF Bericht).

Die verfügbaren Stationen werden durch gelbe und rote Markierungen auf der Karte dargestellt.

Führen Sie die Maus auf sie, um den Namen der Station zu sehen.

Darauf klicken, um die Beobachtung von Wetterbeobachtungen und Prognosen zu sehen.

Um die Karte zu ändern : klicken Sie auf den grünen Tasten mit einem schwarzen Kreuz Zum Vergrößern, auf den grünen Button mit einem Gedankenstrich zu verkleinern, oder auf die grünen Pfeile für benachbarte Karten.


METAR-TAF: